createdAt,value
2022-12-04T00:02:44.279Z,62.81
2022-12-04T00:07:49.249Z,62.91
2022-12-04T00:12:52.833Z,63.62
2022-12-04T00:17:56.259Z,63.60
2022-12-04T00:23:01.130Z,63.07
2022-12-04T00:28:04.673Z,64.03
2022-12-04T00:33:08.005Z,62.76
2022-12-04T00:38:12.770Z,62.85
2022-12-04T00:43:16.334Z,63.71
2022-12-04T00:48:20.009Z,62.73
2022-12-04T00:53:25.071Z,62.84
2022-12-04T00:58:28.509Z,63.11
2022-12-04T01:03:32.131Z,63.06
2022-12-04T01:08:36.994Z,63.38
2022-12-04T01:13:40.171Z,63.74
2022-12-04T01:18:43.596Z,63.54
2022-12-04T01:23:48.833Z,63.10
2022-12-04T01:28:52.324Z,62.87
2022-12-04T01:33:55.659Z,62.83
2022-12-04T01:39:00.635Z,63.92
2022-12-04T01:44:12.250Z,63.74
2022-12-04T01:49:20.449Z,63.11
2022-12-04T01:54:29.776Z,63.15
2022-12-04T01:59:37.298Z,64.00
2022-12-04T02:04:42.819Z,63.47
2022-12-04T02:09:56.555Z,63.48
2022-12-04T02:15:08.010Z,64.23
2022-12-04T02:20:25.239Z,63.94
2022-12-04T02:25:40.716Z,64.39
2022-12-04T02:30:46.887Z,64.04
2022-12-04T02:35:56.371Z,63.58
2022-12-04T02:41:03.456Z,63.25
2022-12-04T02:46:11.791Z,63.79
2022-12-04T02:51:17.567Z,63.83
2022-12-04T02:56:26.395Z,63.91
2022-12-04T03:01:35.655Z,63.75
2022-12-04T03:06:43.882Z,63.30
2022-12-04T03:11:51.846Z,63.25
2022-12-04T03:17:00.716Z,63.19
2022-12-04T03:22:08.191Z,63.91
2022-12-04T03:27:16.242Z,63.29
2022-12-04T03:32:28.147Z,63.59
2022-12-04T03:37:39.079Z,62.85
2022-12-04T03:42:47.426Z,63.56
2022-12-04T03:47:58.512Z,63.92
2022-12-04T03:53:06.827Z,63.35
2022-12-04T03:58:17.678Z,63.41
2022-12-04T04:03:26.377Z,63.57
2022-12-04T04:08:35.920Z,63.99
2022-12-04T04:14:01.882Z,64.21
2022-12-04T04:19:25.772Z,64.29
2022-12-04T04:24:34.890Z,64.45
2022-12-04T04:29:39.311Z,64.24
2022-12-04T04:34:48.926Z,65.23
2022-12-04T04:39:58.349Z,63.62
2022-12-04T04:45:06.813Z,64.30
2022-12-04T04:50:13.637Z,63.83
2022-12-04T04:55:19.332Z,63.84
2022-12-04T05:00:24.249Z,64.08
2022-12-04T05:05:29.170Z,64.73
2022-12-04T05:10:32.660Z,64.48
2022-12-04T05:15:36.134Z,64.18
2022-12-04T05:20:42.031Z,63.55
2022-12-04T05:25:45.480Z,63.25
2022-12-04T05:30:56.796Z,63.84
2022-12-04T05:36:02.658Z,63.39
2022-12-04T05:41:07.391Z,63.41
2022-12-04T05:46:11.742Z,62.92
2022-12-04T05:51:16.210Z,62.34
2022-12-04T05:56:19.666Z,62.20
2022-12-04T06:01:25.204Z,63.48
2022-12-04T06:06:30.177Z,62.64
2022-12-04T06:11:35.790Z,61.75
2022-12-04T06:16:41.261Z,61.67
2022-12-04T06:21:49.107Z,61.45
2022-12-04T06:27:27.215Z,61.29
2022-12-04T06:32:22.041Z,60.34
2022-12-04T06:37:27.357Z,60.15
2022-12-04T06:42:30.791Z,55.02
2022-12-04T06:47:36.236Z,52.29
2022-12-04T06:52:40.987Z,50.02
2022-12-04T06:57:44.047Z,46.84
2022-12-04T07:02:47.399Z,47.35
2022-12-04T07:07:52.239Z,47.34
2022-12-04T07:12:55.312Z,47.00
2022-12-04T07:17:58.651Z,49.07
2022-12-04T07:23:07.224Z,50.36
2022-12-04T07:28:12.583Z,51.06
2022-12-04T07:33:15.937Z,52.64
2022-12-04T07:38:20.662Z,50.79
2022-12-04T07:43:23.849Z,46.82
2022-12-04T07:48:32.992Z,45.36
2022-12-04T07:53:38.554Z,43.54
2022-12-04T07:58:42.786Z,42.31
2022-12-04T08:03:48.909Z,42.63
2022-12-04T08:08:54.584Z,42.52
2022-12-04T08:13:59.205Z,42.99
2022-12-04T08:19:03.362Z,41.60
2022-12-04T08:24:08.411Z,39.88
2022-12-04T08:29:12.267Z,39.08
2022-12-04T08:34:15.731Z,42.87
2022-12-04T08:39:20.623Z,43.69
2022-12-04T08:44:24.156Z,43.90
2022-12-04T08:49:27.498Z,44.42
2022-12-04T08:54:36.065Z,44.82
2022-12-04T08:59:39.973Z,45.70
2022-12-04T09:04:43.552Z,46.77
2022-12-04T09:09:48.677Z,46.73
2022-12-04T09:14:52.218Z,47.13
2022-12-04T09:20:00.667Z,47.59
2022-12-04T09:25:06.781Z,47.12
2022-12-04T09:30:12.205Z,47.77
2022-12-04T09:35:17.493Z,48.68
2022-12-04T09:40:35.155Z,48.41
2022-12-04T09:45:47.565Z,48.05
2022-12-04T09:50:52.504Z,48.24
2022-12-04T09:56:03.758Z,47.71
2022-12-04T10:01:07.393Z,48.79
2022-12-04T10:06:14.998Z,48.72
2022-12-04T10:11:32.568Z,48.25
2022-12-04T10:16:49.043Z,48.05
2022-12-04T10:22:04.866Z,47.88
2022-12-04T10:27:16.125Z,48.50
2022-12-04T10:32:23.464Z,48.47
2022-12-04T10:37:28.972Z,47.87
2022-12-04T10:42:40.564Z,48.01
2022-12-04T10:47:47.420Z,47.39
2022-12-04T10:52:51.538Z,47.87
2022-12-04T10:57:56.434Z,48.00
2022-12-04T11:03:02.925Z,47.63
2022-12-04T11:08:08.092Z,47.72
2022-12-04T11:13:18.843Z,47.90
2022-12-04T11:18:23.886Z,47.27
2022-12-04T11:23:28.176Z,47.70
2022-12-04T11:28:41.569Z,48.11
2022-12-04T11:33:49.081Z,47.68
2022-12-04T11:38:55.581Z,48.50
2022-12-04T11:44:01.262Z,48.39
2022-12-04T11:49:04.614Z,48.72
2022-12-04T11:54:18.194Z,48.38
2022-12-04T11:59:43.027Z,48.60
2022-12-04T12:05:09.720Z,48.86
2022-12-04T12:10:19.429Z,48.88
2022-12-04T12:15:31.689Z,49.09
2022-12-04T12:20:42.863Z,49.24
2022-12-04T12:25:56.958Z,49.61
2022-12-04T12:31:14.082Z,49.94
2022-12-04T12:36:17.629Z,50.00
2022-12-04T12:41:25.110Z,50.36
2022-12-04T12:46:35.122Z,50.21
2022-12-04T12:51:43.758Z,50.24
2022-12-04T12:56:52.703Z,50.50
2022-12-04T13:02:01.610Z,51.24
2022-12-04T13:07:21.478Z,50.94
2022-12-04T13:12:26.067Z,50.72
2022-12-04T13:17:35.146Z,51.14
2022-12-04T13:22:51.057Z,51.12
2022-12-04T13:28:05.675Z,51.36
2022-12-04T13:33:41.420Z,51.44
2022-12-04T13:39:00.335Z,51.81
2022-12-04T13:44:07.178Z,51.40
2022-12-04T13:49:27.203Z,52.54
2022-12-04T13:54:32.573Z,52.29
2022-12-04T13:59:38.633Z,52.02
2022-12-04T14:04:53.784Z,51.93
2022-12-04T14:09:59.092Z,51.96
2022-12-04T14:15:04.936Z,52.68
2022-12-04T14:20:25.231Z,52.35
2022-12-04T14:25:36.987Z,53.01
2022-12-04T14:30:41.919Z,52.90
2022-12-04T14:35:52.611Z,53.24
2022-12-04T14:40:58.567Z,52.89
2022-12-04T14:46:08.642Z,53.69
2022-12-04T14:51:19.030Z,53.56
2022-12-04T14:56:33.298Z,54.21
2022-12-04T15:01:39.309Z,53.63
2022-12-04T15:06:48.758Z,53.12
2022-12-04T15:12:12.149Z,53.78
2022-12-04T15:17:17.160Z,54.41
2022-12-04T15:22:25.002Z,53.24
2022-12-04T15:27:32.760Z,54.21
2022-12-04T15:32:36.627Z,54.09
2022-12-04T15:37:42.566Z,54.16
2022-12-04T15:42:45.986Z,54.00
2022-12-04T15:47:53.936Z,53.95
2022-12-04T15:53:04.091Z,54.22
2022-12-04T15:58:19.306Z,54.80
2022-12-04T16:03:28.129Z,55.25
2022-12-04T16:08:36.325Z,55.30
2022-12-04T16:13:40.711Z,54.67
2022-12-04T16:18:45.246Z,56.39
2022-12-04T16:23:50.461Z,55.11
2022-12-04T16:28:53.906Z,55.70
2022-12-04T16:33:57.436Z,55.77
2022-12-04T16:39:02.206Z,56.36
2022-12-04T16:44:13.467Z,55.51
2022-12-04T16:49:19.562Z,56.59
2022-12-04T16:54:24.471Z,56.39
2022-12-04T16:59:27.825Z,56.71
2022-12-04T17:04:31.395Z,56.19
2022-12-04T17:09:36.195Z,56.04
2022-12-04T17:14:41.062Z,56.25
2022-12-04T17:19:44.491Z,57.03
2022-12-04T17:24:55.758Z,56.95
2022-12-04T17:30:00.993Z,56.51
2022-12-04T17:35:06.388Z,56.28
2022-12-04T17:40:14.567Z,57.09
2022-12-04T17:45:18.520Z,57.02
2022-12-04T17:50:21.929Z,56.00
2022-12-04T17:55:26.775Z,56.25
2022-12-04T18:00:30.671Z,56.52
2022-12-04T18:05:34.011Z,57.24
2022-12-04T18:10:38.954Z,57.09
2022-12-04T18:15:42.574Z,56.78
2022-12-04T18:20:46.114Z,56.72
2022-12-04T18:25:57.544Z,56.82
2022-12-04T18:31:04.087Z,56.02
2022-12-04T18:36:09.686Z,56.95
2022-12-04T18:41:16.078Z,56.16
2022-12-04T18:46:20.197Z,56.95
2022-12-04T18:51:25.283Z,57.29
2022-12-04T18:56:30.581Z,56.63
2022-12-04T19:01:35.733Z,56.40
2022-12-04T19:06:42.119Z,57.44
2022-12-04T19:11:47.748Z,57.14
2022-12-04T19:16:51.922Z,56.57
2022-12-04T19:21:56.797Z,56.92
2022-12-04T19:27:02.107Z,57.99
2022-12-04T19:32:05.906Z,57.49
2022-12-04T19:37:09.244Z,56.96
2022-12-04T19:42:14.126Z,57.28
2022-12-04T19:47:17.752Z,57.73
2022-12-04T19:52:21.905Z,57.09
2022-12-04T19:57:26.790Z,57.69
2022-12-04T20:02:30.363Z,57.99
2022-12-04T20:07:34.047Z,57.65
2022-12-04T20:12:38.918Z,58.12
2022-12-04T20:17:42.541Z,58.45
2022-12-04T20:22:48.355Z,58.02
2022-12-04T20:27:53.431Z,57.69
2022-12-04T20:32:56.915Z,58.40
2022-12-04T20:38:00.358Z,58.02
2022-12-04T20:43:05.382Z,58.72
2022-12-04T20:48:08.854Z,58.58
2022-12-04T20:53:12.279Z,58.60
2022-12-04T20:58:17.238Z,58.27
2022-12-04T21:03:20.515Z,59.25
2022-12-04T21:08:37.730Z,59.45
2022-12-04T21:13:59.933Z,58.76
2022-12-04T21:19:03.447Z,59.78
2022-12-04T21:24:08.471Z,59.42
2022-12-04T21:29:13.330Z,59.13
2022-12-04T21:34:18.149Z,60.11
2022-12-04T21:44:46.837Z,59.71
2022-12-04T21:49:50.381Z,58.93
2022-12-04T21:54:54.550Z,59.92
2022-12-04T21:59:59.495Z,60.19
2022-12-04T22:05:03.040Z,59.29
2022-12-04T22:10:10.859Z,59.97
2022-12-04T22:15:16.043Z,59.84
2022-12-04T22:20:19.789Z,60.76
2022-12-04T22:25:23.264Z,59.22
2022-12-04T22:30:28.567Z,60.03
2022-12-04T22:35:33.684Z,60.45
2022-12-04T22:40:38.867Z,60.19
2022-12-04T22:45:43.630Z,59.99
2022-12-04T22:50:47.107Z,60.64
2022-12-04T22:55:50.512Z,60.12
2022-12-04T23:00:55.330Z,59.74
2022-12-04T23:11:16.514Z,59.33
2022-12-04T23:16:20.548Z,60.11
2022-12-04T23:21:24.607Z,59.82
2022-12-04T23:26:32.435Z,60.62
2022-12-04T23:31:35.844Z,60.99
2022-12-04T23:36:39.278Z,60.58
2022-12-04T23:41:44.104Z,60.51
2022-12-04T23:46:47.403Z,60.45
2022-12-04T23:51:50.887Z,59.70
2022-12-04T23:56:56.528Z,59.88
